Time;durP1;ratioP1;P1;durP2;ratioP2;P2;SDS_P1;SDS_P2;PMS_P1;PMS_P2;Temp;Humidity;BMP_temperature;BMP_pressure;BME280_temperature;BME280_humidity;BME280_pressure;Samples;Min_cycle;Max_cycle;Signal;HPM_P1;HPM_P2
2023/12/28 00:04:29;;;;;;;37.70;17.30;;;;;;;1.98;100.00;100459.54;218387;1283;139918;-87
2023/12/28 00:09:30;;;;;;;43.60;15.90;;;;;;;1.99;100.00;100462.08;218843;1283;140346;-88
2023/12/28 00:14:30;;;;;;;41.50;18.20;;;;;;;2.02;100.00;100455.21;218305;1283;140373;-88
2023/12/28 00:19:31;;;;;;;41.30;14.60;;;;;;;2.02;100.00;100465.24;218974;1283;138657;-88
2023/12/28 00:24:31;;;;;;;32.30;14.10;;;;;;;2.02;100.00;100467.24;218455;1282;139390;-87
2023/12/28 00:29:32;;;;;;;36.80;13.40;;;;;;;2.02;100.00;100457.66;219090;1282;138564;-87
2023/12/28 00:34:32;;;;;;;34.80;13.40;;;;;;;2.05;100.00;100461.83;218673;1282;139194;-87
2023/12/28 00:39:34;;;;;;;37.70;13.90;;;;;;;2.05;100.00;100451.09;219121;1282;138676;-88
2023/12/28 00:44:35;;;;;;;35.10;12.90;;;;;;;2.04;100.00;100442.63;218646;1282;139732;-87
2023/12/28 00:49:35;;;;;;;35.40;14.00;;;;;;;2.01;100.00;100439.29;219108;1284;138686;-87
2023/12/28 00:54:39;;;;;;;35.10;13.30;;;;;;;1.99;100.00;100425.96;218585;1282;139859;-88
2023/12/28 00:59:40;;;;;;;37.40;13.10;;;;;;;1.99;100.00;100421.85;218885;1282;139142;-87
2023/12/28 01:04:40;;;;;;;28.90;11.70;;;;;;;1.98;100.00;100415.88;218528;1282;141187;-86
2023/12/28 01:09:41;;;;;;;33.60;12.90;;;;;;;1.97;100.00;100408.79;218529;1282;96478;-86
2023/12/28 01:14:41;;;;;;;37.40;12.60;;;;;;;1.96;100.00;100395.47;216534;1283;140423;-86
2023/12/28 01:19:42;;;;;;;33.30;12.60;;;;;;;1.93;100.00;100398.85;218946;1282;139042;-86
2023/12/28 01:24:46;;;;;;;28.70;12.50;;;;;;;1.90;100.00;100404.16;218653;1282;140690;-86
2023/12/28 01:29:46;;;;;;;31.00;12.80;;;;;;;1.87;100.00;100405.25;218562;1282;139497;-86
2023/12/28 01:34:47;;;;;;;28.10;11.60;;;;;;;1.86;100.00;100406.59;218741;1282;139304;-86
2023/12/28 01:39:47;;;;;;;30.80;11.60;;;;;;;1.83;100.00;100386.39;218948;1282;138797;-86
2023/12/28 01:44:48;;;;;;;35.20;13.40;;;;;;;1.81;100.00;100378.15;219036;1282;138547;-87
2023/12/28 01:49:48;;;;;;;30.60;12.10;;;;;;;1.80;100.00;100377.20;218636;1282;139468;-83
2023/12/28 01:54:49;;;;;;;34.80;12.70;;;;;;;1.77;100.00;100361.40;219110;1283;139120;-86
2023/12/28 01:59:51;;;;;;;31.50;12.00;;;;;;;1.74;100.00;100328.61;218330;1282;139579;-87
2023/12/28 02:04:51;;;;;;;26.70;11.70;;;;;;;1.73;100.00;100311.98;218868;1285;139569;-86
2023/12/28 02:09:52;;;;;;;28.30;11.60;;;;;;;1.73;100.00;100307.25;218481;1283;140935;-87
2023/12/28 02:14:52;;;;;;;28.40;11.90;;;;;;;1.75;100.00;100303.21;218937;1283;139114;-87
2023/12/28 02:19:56;;;;;;;29.80;12.90;;;;;;;1.76;100.00;100283.29;218462;1283;140511;-87
2023/12/28 02:24:56;;;;;;;30.40;11.70;;;;;;;1.78;100.00;100269.66;219052;1283;138819;-86
2023/12/28 02:29:57;;;;;;;30.60;11.60;;;;;;;1.81;100.00;100268.29;218440;1282;140073;-87
2023/12/28 02:35:10;;;;;;;33.10;12.10;;;;;;;1.81;100.00;100261.91;219197;1282;139251;-86
2023/12/28 02:40:15;;;;;;;27.50;10.90;;;;;;;1.84;100.00;100252.86;218928;1283;139909;-86
2023/12/28 02:45:15;;;;;;;29.10;11.00;;;;;;;1.86;100.00;100227.05;219130;1282;139220;-86
2023/12/28 02:50:16;;;;;;;29.00;12.30;;;;;;;1.87;100.00;100205.09;218266;1283;140682;-86
2023/12/28 02:55:16;;;;;;;26.90;11.50;;;;;;;1.89;100.00;100186.70;216593;1282;138552;-86
2023/12/28 03:00:17;;;;;;;27.10;10.20;;;;;;;1.92;100.00;100168.69;218429;1283;139920;-86
2023/12/28 03:05:17;;;;;;;25.20;11.50;;;;;;;1.94;100.00;100161.62;219152;1283;139125;-88
2023/12/28 03:10:18;;;;;;;27.40;11.00;;;;;;;1.95;100.00;100153.47;218509;1283;139642;-87
2023/12/28 03:15:18;;;;;;;26.80;11.30;;;;;;;1.98;100.00;100155.29;219225;1282;139158;-86
2023/12/28 03:20:20;;;;;;;26.40;11.60;;;;;;;1.98;100.00;100156.45;218681;1284;140886;-86
2023/12/28 03:25:20;;;;;;;25.30;11.30;;;;;;;1.98;100.00;100157.71;218990;1282;139000;-88
2023/12/28 03:30:21;;;;;;;27.40;11.10;;;;;;;2.01;100.00;100148.65;218555;1282;140532;-87
2023/12/28 03:35:21;;;;;;;26.60;10.40;;;;;;;2.03;100.00;100137.82;219070;1284;138631;-86
2023/12/28 03:40:22;;;;;;;28.90;12.00;;;;;;;2.05;100.00;100133.38;218832;1283;140369;-87
2023/12/28 03:45:22;;;;;;;28.70;12.40;;;;;;;2.07;100.00;100138.34;219081;1282;138835;-86
2023/12/28 03:50:23;;;;;;;25.20;10.80;;;;;;;2.09;100.00;100131.40;218638;1283;140827;-87
2023/12/28 03:55:23;;;;;;;27.80;12.00;;;;;;;2.11;100.00;100129.44;219255;1284;139284;-87
2023/12/28 04:00:24;;;;;;;25.90;11.40;;;;;;;2.14;100.00;100115.06;218474;1283;140373;-86
2023/12/28 04:05:24;;;;;;;25.90;11.60;;;;;;;2.16;100.00;100117.41;219040;1282;139716;-86
2023/12/28 04:10:32;;;;;;;24.70;11.10;;;;;;;2.17;100.00;100115.20;218784;1282;140606;-86
2023/12/28 04:15:33;;;;;;;21.80;10.70;;;;;;;2.20;100.00;100106.91;218921;1283;138799;-86
2023/12/28 04:20:33;;;;;;;24.90;10.70;;;;;;;2.21;100.00;100119.38;218683;1282;139838;-87
2023/12/28 04:25:33;;;;;;;21.80;11.20;;;;;;;2.22;100.00;100112.80;219226;1282;138824;-87
2023/12/28 04:30:34;;;;;;;26.10;10.40;;;;;;;2.22;100.00;100111.75;218565;1282;139658;-86
2023/12/28 04:35:34;;;;;;;25.20;11.30;;;;;;;2.24;100.00;100115.92;217190;1282;138856;-86
2023/12/28 04:40:35;;;;;;;24.20;10.90;;;;;;;2.25;100.00;100133.03;217971;1283;140602;-87
2023/12/28 04:45:35;;;;;;;27.10;10.20;;;;;;;2.32;100.00;100138.73;219165;1282;138658;-86
2023/12/28 04:50:35;;;;;;;25.10;9.90;;;;;;;2.42;100.00;100124.00;218462;1283;139704;-87
2023/12/28 04:55:36;;;;;;;22.30;9.50;;;;;;;2.57;100.00;100113.00;218894;1283;139080;-90
2023/12/28 05:00:36;;;;;;;18.70;8.00;;;;;;;2.73;100.00;100114.45;218441;1283;140418;-87
2023/12/28 05:05:37;;;;;;;17.90;7.80;;;;;;;2.84;100.00;100105.71;218854;1283;138566;-86
2023/12/28 05:10:37;;;;;;;22.00;8.90;;;;;;;2.94;100.00;100099.33;218638;1283;139121;-88
2023/12/28 05:15:38;;;;;;;19.90;8.60;;;;;;;3.07;100.00;100097.14;218884;1283;138139;-86
2023/12/28 05:20:39;;;;;;;20.10;8.70;;;;;;;3.17;100.00;100097.98;218484;1283;139305;-88
2023/12/28 05:25:40;;;;;;;24.00;9.30;;;;;;;3.25;100.00;100099.33;218986;1283;139322;-88
2023/12/28 05:30:40;;;;;;;21.40;9.00;;;;;;;3.32;100.00;100102.69;218630;1284;139669;-89
2023/12/28 05:35:40;;;;;;;23.70;9.00;;;;;;;3.36;100.00;100096.38;219092;1283;138683;-89
2023/12/28 05:40:41;;;;;;;23.10;9.30;;;;;;;3.40;100.00;100086.96;218327;1283;139306;-85
2023/12/28 05:45:41;;;;;;;23.80;10.20;;;;;;;3.45;100.00;100082.94;219360;1282;95044;-89
2023/12/28 05:50:42;;;;;;;17.70;8.90;;;;;;;3.51;100.00;100088.11;218439;1282;140120;-88
2023/12/28 05:55:43;;;;;;;19.90;9.70;;;;;;;3.57;100.00;100093.52;219011;1283;138550;-87
2023/12/28 06:00:43;;;;;;;19.80;9.30;;;;;;;3.62;100.00;100095.80;218408;1283;139807;-89
2023/12/28 06:05:44;;;;;;;20.90;9.20;;;;;;;3.67;100.00;100099.35;218999;1282;139588;-88
2023/12/28 06:10:44;;;;;;;20.20;8.60;;;;;;;3.73;100.00;100108.34;218476;1283;139961;-90
2023/12/28 06:15:44;;;;;;;18.80;7.80;;;;;;;3.80;100.00;100120.32;218484;1282;96292;-88
2023/12/28 06:20:45;;;;;;;17.00;7.20;;;;;;;3.87;100.00;100127.79;216525;1284;139506;-89
2023/12/28 06:25:45;;;;;;;17.10;8.70;;;;;;;3.95;100.00;100149.91;218806;1282;139997;-89
2023/12/28 06:30:46;;;;;;;19.30;7.40;;;;;;;4.04;100.00;100161.77;218372;1282;139960;-87
2023/12/28 06:35:46;;;;;;;18.50;7.30;;;;;;;4.11;100.00;100170.42;219085;1282;138559;-87
2023/12/28 06:40:47;;;;;;;17.10;7.50;;;;;;;4.17;100.00;100167.56;218425;1283;139368;-87
2023/12/28 06:45:47;;;;;;;18.20;7.70;;;;;;;4.21;100.00;100156.45;218976;1284;95057;-87
2023/12/28 06:50:47;;;;;;;16.60;6.20;;;;;;;4.28;100.00;100157.90;218539;1282;140870;-87
2023/12/28 06:55:48;;;;;;;14.30;6.00;;;;;;;4.34;100.00;100159.81;218964;1284;138928;-87
2023/12/28 07:00:48;;;;;;;13.70;6.10;;;;;;;4.42;100.00;100166.44;218346;1283;139683;-87
2023/12/28 07:05:48;;;;;;;13.90;5.80;;;;;;;4.49;100.00;100170.09;218640;1283;138564;-89
2023/12/28 07:10:49;;;;;;;15.00;6.30;;;;;;;4.57;100.00;100176.10;218237;1282;144343;-89
2023/12/28 07:15:49;;;;;;;14.90;5.70;;;;;;;4.67;100.00;100195.63;219268;1282;95009;-89
2023/12/28 07:20:50;;;;;;;11.90;5.40;;;;;;;4.76;100.00;100204.87;218473;1282;139153;-88
2023/12/28 07:25:51;;;;;;;16.60;5.90;;;;;;;4.87;100.00;100201.29;219109;1282;139198;-88
2023/12/28 07:30:51;;;;;;;12.40;5.30;;;;;;;4.97;100.00;100213.77;218371;1285;139540;-89
2023/12/28 07:35:51;;;;;;;9.30;4.30;;;;;;;5.05;100.00;100212.08;219024;1282;138713;-87
2023/12/28 07:40:52;;;;;;;11.80;4.30;;;;;;;5.14;100.00;100212.09;218368;1283;140298;-88
2023/12/28 07:45:53;;;;;;;9.90;4.30;;;;;;;5.23;100.00;100228.73;218817;1283;95360;-88
2023/12/28 07:50:54;;;;;;;9.50;4.30;;;;;;;5.31;100.00;100224.67;218123;1283;139524;-89
2023/12/28 07:55:55;;;;;;;10.40;3.80;;;;;;;5.40;100.00;100219.45;218910;1282;138400;-88
2023/12/28 08:00:55;;;;;;;9.80;4.10;;;;;;;5.51;100.00;100224.98;218307;1282;139819;-89
2023/12/28 08:05:56;;;;;;;9.30;4.00;;;;;;;5.59;100.00;100232.48;216503;1286;138742;-90
2023/12/28 08:10:56;;;;;;;10.30;3.90;;;;;;;5.68;100.00;100232.27;218337;1284;139881;-88
2023/12/28 08:15:57;;;;;;;9.30;3.80;;;;;;;5.77;100.00;100230.95;218988;1282;95262;-89
2023/12/28 08:20:58;;;;;;;10.20;4.30;;;;;;;5.86;100.00;100232.63;218477;1282;139852;-87
2023/12/28 08:25:59;;;;;;;10.40;4.00;;;;;;;5.96;100.00;100221.41;218689;1284;139257;-89
2023/12/28 08:30:59;;;;;;;11.30;4.90;;;;;;;6.07;100.00;100229.27;218101;1284;139648;-87
2023/12/28 08:36:00;;;;;;;10.30;4.40;;;;;;;6.19;100.00;100238.79;219022;1285;138480;-88
2023/12/28 08:41:03;;;;;;;9.30;3.80;;;;;;;6.28;100.00;100246.34;217948;1285;139828;-89
